createdAt,value
2023-10-27T00:00:10.959Z,61.20
2023-10-27T00:02:39.893Z,64.47
2023-10-27T00:05:09.024Z,60.63
2023-10-27T00:07:37.217Z,65.50
2023-10-27T00:10:06.349Z,61.85
2023-10-27T00:12:35.969Z,63.08
2023-10-27T00:15:04.423Z,71.68
2023-10-27T00:17:32.570Z,66.43
2023-10-27T00:20:00.898Z,62.00
2023-10-27T00:22:30.387Z,64.68
2023-10-27T00:24:58.617Z,69.72
2023-10-27T00:27:26.812Z,66.10
2023-10-27T00:29:56.605Z,61.90
2023-10-27T00:32:24.702Z,67.72
2023-10-27T00:34:53.058Z,59.47
2023-10-27T00:37:21.200Z,60.17
2023-10-27T00:39:49.487Z,58.70
2023-10-27T00:42:17.618Z,57.40
2023-10-27T00:44:45.885Z,59.13
2023-10-27T00:47:15.427Z,64.35
2023-10-27T00:49:45.383Z,84.45
2023-10-27T00:52:14.759Z,62.33
2023-10-27T00:54:43.689Z,58.60
2023-10-27T00:57:12.276Z,68.95
2023-10-27T00:59:40.435Z,73.47
2023-10-27T01:02:08.605Z,56.28
2023-10-27T01:04:38.390Z,56.67
2023-10-27T01:07:06.805Z,62.72
2023-10-27T01:09:35.187Z,56.25
2023-10-27T01:12:03.938Z,56.47
2023-10-27T01:14:34.823Z,71.50
2023-10-27T01:17:02.954Z,64.50
2023-10-27T01:19:31.215Z,57.47
2023-10-27T01:22:01.123Z,60.45
2023-10-27T01:24:32.037Z,55.25
2023-10-27T01:27:01.945Z,56.08
2023-10-27T01:29:30.673Z,57.33
2023-10-27T01:31:58.772Z,52.80
2023-10-27T01:34:26.951Z,57.88
2023-10-27T01:36:55.087Z,57.83
2023-10-27T01:39:23.260Z,52.20
2023-10-27T01:41:52.984Z,55.08
2023-10-27T01:44:21.097Z,52.25
2023-10-27T01:46:49.284Z,52.40
2023-10-27T01:49:17.502Z,52.63
2023-10-27T01:51:45.664Z,52.92
2023-10-27T01:54:13.781Z,56.90
2023-10-27T01:56:41.933Z,57.92
2023-10-27T01:59:11.615Z,51.05
2023-10-27T02:01:40.234Z,53.72
2023-10-27T02:04:08.789Z,53.80
2023-10-27T02:06:37.495Z,51.40
2023-10-27T02:09:05.672Z,52.47
2023-10-27T02:11:34.085Z,58.70
2023-10-27T02:14:02.379Z,55.70
2023-10-27T02:16:31.932Z,53.78
2023-10-27T02:19:00.188Z,55.08
2023-10-27T02:21:28.370Z,51.17
2023-10-27T02:23:56.465Z,52.63
2023-10-27T02:26:24.530Z,52.85
2023-10-27T02:28:52.856Z,55.33
2023-10-27T02:31:21.005Z,51.40
2023-10-27T02:33:51.333Z,49.28
2023-10-27T02:36:19.349Z,48.92
2023-10-27T02:38:47.495Z,52.65
2023-10-27T02:41:15.595Z,50.38
2023-10-27T02:43:44.017Z,52.70
2023-10-27T02:46:13.595Z,47.72
2023-10-27T02:48:43.525Z,47.92
2023-10-27T02:51:14.331Z,51.80
2023-10-27T02:53:42.543Z,48.38
2023-10-27T02:56:11.670Z,51.17
2023-10-27T02:58:39.883Z,46.80
2023-10-27T03:01:15.814Z,47.67
2023-10-27T03:03:44.214Z,45.25
2023-10-27T03:06:14.881Z,44.10
2023-10-27T03:08:45.093Z,45.90
2023-10-27T03:11:13.336Z,44.33
2023-10-27T03:13:41.827Z,43.63
2023-10-27T03:16:10.096Z,44.65
2023-10-27T03:18:38.256Z,44.05
2023-10-27T03:21:06.823Z,43.40
2023-10-27T03:23:36.466Z,43.58
2023-10-27T03:26:04.968Z,46.17
2023-10-27T03:28:33.646Z,46.17
2023-10-27T03:31:02.069Z,43.95
2023-10-27T03:33:30.514Z,43.00
2023-10-27T03:35:58.613Z,42.05
2023-10-27T03:38:27.188Z,42.25
2023-10-27T03:40:56.945Z,42.15
2023-10-27T03:43:25.224Z,43.55
2023-10-27T03:45:53.357Z,42.65
2023-10-27T03:48:21.518Z,41.63
2023-10-27T03:50:49.756Z,42.80
2023-10-27T03:53:19.096Z,41.58
2023-10-27T03:55:53.757Z,41.70
2023-10-27T03:58:30.264Z,40.05
2023-10-27T04:01:01.445Z,41.97
2023-10-27T04:03:32.429Z,39.83
2023-10-27T04:06:00.903Z,41.10
2023-10-27T04:08:29.037Z,42.42
2023-10-27T04:11:00.152Z,42.60
2023-10-27T04:13:29.684Z,42.78
2023-10-27T04:15:58.021Z,40.70
2023-10-27T04:18:26.260Z,41.92
2023-10-27T04:20:54.405Z,40.58
2023-10-27T04:23:22.524Z,42.17
2023-10-27T04:25:52.583Z,41.97
2023-10-27T04:28:23.107Z,41.13
2023-10-27T04:30:54.286Z,41.58
2023-10-27T04:33:23.865Z,42.72
2023-10-27T04:35:52.029Z,41.65
2023-10-27T04:38:20.175Z,42.90
2023-10-27T04:40:50.079Z,41.80
2023-10-27T04:43:18.272Z,42.22
2023-10-27T04:45:47.434Z,44.10
2023-10-27T04:48:17.229Z,41.33
2023-10-27T04:50:45.426Z,40.47
2023-10-27T04:53:13.509Z,41.60
2023-10-27T04:55:41.628Z,43.70
2023-10-27T04:58:09.809Z,42.08
2023-10-27T05:00:38.608Z,44.67
2023-10-27T05:03:07.094Z,41.90
2023-10-27T05:05:36.779Z,41.72
2023-10-27T05:08:08.005Z,41.58
2023-10-27T05:10:37.272Z,41.15
2023-10-27T05:13:10.178Z,41.58
2023-10-27T05:15:39.735Z,45.30
2023-10-27T05:18:08.640Z,47.22
2023-10-27T05:20:41.060Z,42.97
2023-10-27T05:23:09.457Z,43.25
2023-10-27T05:25:37.624Z,42.20
2023-10-27T05:28:07.290Z,40.35
2023-10-27T05:30:38.943Z,43.90
2023-10-27T05:33:10.124Z,43.88
2023-10-27T05:35:38.382Z,42.13
2023-10-27T05:38:07.897Z,42.13
2023-10-27T05:40:36.207Z,42.20
2023-10-27T05:43:04.551Z,43.25
2023-10-27T05:45:32.767Z,41.92
2023-10-27T05:48:01.023Z,42.28
2023-10-27T05:50:32.392Z,41.15
2023-10-27T05:53:01.280Z,41.05
2023-10-27T05:55:30.880Z,41.50
2023-10-27T05:57:59.035Z,43.55
2023-10-27T06:00:27.495Z,42.78
2023-10-27T06:02:56.850Z,42.33
2023-10-27T06:05:25.881Z,42.80
2023-10-27T06:07:54.069Z,45.22
2023-10-27T06:10:22.418Z,41.67
2023-10-27T06:12:51.943Z,41.42
2023-10-27T06:15:20.018Z,42.15
2023-10-27T06:17:50.086Z,40.95
2023-10-27T06:20:19.391Z,45.60
2023-10-27T06:22:48.057Z,41.25
2023-10-27T06:25:16.269Z,42.78
2023-10-27T06:27:44.471Z,42.28
2023-10-27T06:30:14.798Z,41.55
2023-10-27T06:32:43.218Z,42.30
2023-10-27T06:35:11.397Z,41.22
2023-10-27T06:37:39.592Z,44.17
2023-10-27T06:40:12.325Z,42.97
2023-10-27T06:42:41.788Z,48.35
2023-10-27T06:45:11.043Z,42.58
2023-10-27T06:47:41.519Z,43.25
2023-10-27T06:50:10.070Z,43.40
2023-10-27T06:52:38.658Z,46.65
2023-10-27T06:55:07.705Z,42.30
2023-10-27T06:57:35.768Z,41.50
2023-10-27T07:00:05.509Z,40.50
2023-10-27T07:02:42.104Z,44.95
2023-10-27T07:05:18.359Z,40.35
2023-10-27T07:07:46.534Z,40.35
2023-10-27T07:10:14.791Z,41.60
2023-10-27T07:12:44.654Z,41.08
2023-10-27T07:15:13.929Z,42.45
2023-10-27T07:17:42.185Z,39.95
2023-10-27T07:20:11.334Z,40.80
2023-10-27T07:22:40.901Z,40.28
2023-10-27T07:25:11.878Z,40.17
2023-10-27T07:27:40.113Z,41.35
2023-10-27T07:30:09.777Z,39.80
2023-10-27T07:32:38.023Z,41.33
2023-10-27T07:35:06.971Z,40.88
2023-10-27T07:37:40.533Z,40.15
2023-10-27T07:40:09.797Z,40.03
2023-10-27T07:42:45.140Z,40.83
2023-10-27T07:45:19.379Z,39.13
2023-10-27T07:47:53.878Z,39.17
2023-10-27T07:50:58.830Z,41.75
2023-10-27T07:53:29.540Z,39.55
2023-10-27T07:56:11.119Z,39.38
2023-10-27T07:59:11.503Z,38.75
2023-10-27T08:02:19.437Z,39.13
2023-10-27T08:05:12.882Z,39.17
2023-10-27T08:07:41.314Z,39.30
2023-10-27T08:22:33.136Z,39.35
2023-10-27T08:41:57.866Z,39.65
2023-10-27T08:54:17.876Z,39.53
2023-10-27T08:57:31.781Z,38.90
2023-10-27T09:00:08.156Z,39.30
2023-10-27T09:03:28.711Z,39.10
2023-10-27T09:06:15.937Z,39.05
2023-10-27T09:08:58.156Z,39.22
2023-10-27T09:12:16.967Z,41.00
2023-10-27T09:14:44.874Z,39.63
2023-10-27T09:17:33.387Z,40.00
2023-10-27T09:20:27.925Z,38.72
2023-10-27T09:23:13.593Z,40.70
2023-10-27T09:25:59.506Z,39.22
2023-10-27T09:28:30.998Z,39.90
2023-10-27T09:31:23.034Z,39.65
2023-10-27T09:33:55.611Z,39.30
2023-10-27T09:36:27.212Z,39.42
2023-10-27T09:39:06.007Z,39.63
2023-10-27T09:41:52.331Z,40.70
2023-10-27T09:44:27.031Z,39.70
2023-10-27T09:47:05.308Z,39.85
2023-10-27T09:49:35.803Z,38.03
2023-10-27T09:52:08.961Z,38.63
2023-10-27T09:54:37.139Z,37.08
2023-10-27T09:57:06.597Z,38.30
2023-10-27T09:59:36.406Z,37.85
2023-10-27T10:02:07.653Z,38.38
2023-10-27T10:05:04.554Z,38.42
2023-10-27T10:07:33.655Z,37.97
2023-10-27T10:10:18.969Z,38.30
2023-10-27T10:13:06.781Z,39.30
2023-10-27T10:15:37.164Z,37.72
2023-10-27T10:18:08.528Z,37.40
2023-10-27T10:20:58.622Z,38.60
2023-10-27T10:23:42.855Z,40.10
2023-10-27T10:26:11.072Z,39.65
2023-10-27T10:28:40.525Z,39.55
2023-10-27T10:31:35.443Z,39.33
2023-10-27T10:34:14.143Z,39.08
2023-10-27T10:36:42.936Z,40.03
2023-10-27T10:39:13.119Z,39.75
2023-10-27T10:42:03.594Z,39.15
2023-10-27T10:44:33.128Z,39.15
2023-10-27T10:47:05.256Z,40.00
2023-10-27T10:49:37.670Z,40.88
2023-10-27T10:52:06.918Z,40.97
2023-10-27T10:54:36.711Z,39.20
2023-10-27T10:57:09.100Z,40.45
2023-10-27T10:59:38.570Z,38.00
2023-10-27T11:02:06.951Z,39.17
2023-10-27T11:07:08.077Z,36.72
2023-10-27T11:09:36.178Z,35.60
2023-10-27T11:12:05.473Z,35.92
2023-10-27T11:14:43.676Z,36.65
2023-10-27T11:17:13.564Z,35.45
2023-10-27T11:19:56.356Z,36.17
2023-10-27T11:22:25.861Z,35.25
2023-10-27T11:24:54.157Z,36.55
2023-10-27T11:27:26.608Z,35.90
2023-10-27T11:30:07.151Z,36.33
2023-10-27T11:32:35.367Z,36.67
2023-10-27T11:35:04.950Z,37.58
2023-10-27T11:37:33.632Z,37.63
2023-10-27T11:40:14.969Z,38.00
2023-10-27T11:42:43.148Z,38.60
2023-10-27T11:45:12.142Z,38.92
2023-10-27T11:47:40.337Z,38.80
2023-10-27T11:50:10.991Z,39.03
2023-10-27T11:52:39.251Z,40.80
2023-10-27T11:55:08.053Z,41.63
2023-10-27T11:57:37.348Z,40.78
2023-10-27T12:00:06.486Z,41.40
2023-10-27T12:02:34.449Z,41.95
2023-10-27T12:05:04.684Z,41.63
2023-10-27T12:07:35.176Z,42.80
2023-10-27T12:10:03.900Z,42.63
2023-10-27T12:12:32.028Z,42.08
2023-10-27T12:15:00.106Z,41.58
2023-10-27T12:17:28.473Z,41.28
2023-10-27T12:19:56.777Z,43.47
2023-10-27T12:22:24.919Z,43.10
2023-10-27T12:24:54.965Z,43.03
2023-10-27T12:27:25.065Z,43.78
2023-10-27T12:29:54.030Z,43.70
2023-10-27T12:32:22.170Z,44.58
2023-10-27T12:34:51.820Z,45.75
2023-10-27T12:37:20.837Z,45.50
2023-10-27T12:39:50.080Z,45.28
2023-10-27T12:42:21.095Z,43.75
2023-10-27T12:44:49.536Z,41.58
2023-10-27T12:47:17.900Z,40.75
2023-10-27T12:49:50.520Z,40.25
2023-10-27T12:52:18.936Z,39.30
2023-10-27T12:54:47.477Z,38.88
2023-10-27T12:57:15.904Z,38.85
2023-10-27T12:59:47.541Z,38.33
2023-10-27T13:02:15.777Z,36.83
2023-10-27T13:04:44.380Z,38.85
2023-10-27T13:07:12.863Z,38.88
2023-10-27T13:09:42.103Z,37.85
2023-10-27T13:12:12.090Z,38.22
2023-10-27T13:14:41.286Z,38.10
2023-10-27T13:17:11.972Z,38.22
2023-10-27T13:19:40.122Z,37.45
2023-10-27T13:22:08.229Z,37.55
2023-10-27T13:24:38.494Z,37.90
2023-10-27T13:27:09.164Z,37.20
2023-10-27T13:29:37.659Z,36.60
2023-10-27T13:32:06.572Z,36.40
2023-10-27T13:34:37.601Z,36.08
2023-10-27T13:37:06.517Z,35.45
2023-10-27T13:39:35.532Z,35.15
2023-10-27T13:42:03.787Z,36.03
2023-10-27T13:44:31.799Z,35.55
2023-10-27T13:47:00.915Z,36.65
2023-10-27T13:49:28.980Z,36.60
2023-10-27T13:51:58.636Z,36.03
2023-10-27T13:54:26.792Z,36.13
2023-10-27T13:56:54.801Z,36.22
2023-10-27T13:59:23.310Z,36.45
2023-10-27T14:01:51.757Z,35.95
2023-10-27T14:04:20.099Z,36.83
2023-10-27T14:06:48.716Z,37.05
2023-10-27T14:09:18.951Z,36.85
2023-10-27T14:11:50.447Z,35.97
2023-10-27T14:14:24.174Z,37.58
2023-10-27T14:16:52.353Z,35.92
2023-10-27T14:19:20.618Z,35.47
2023-10-27T14:21:49.646Z,36.60
2023-10-27T14:24:19.325Z,36.30
2023-10-27T14:26:50.431Z,35.85
2023-10-27T14:29:18.718Z,35.72
2023-10-27T14:31:46.869Z,37.13
2023-10-27T14:34:15.130Z,37.00
2023-10-27T14:36:44.473Z,37.13
2023-10-27T14:39:15.007Z,36.13
2023-10-27T14:41:45.025Z,35.83
2023-10-27T14:44:22.295Z,37.60
2023-10-27T14:46:50.620Z,36.60
2023-10-27T14:49:19.662Z,37.22
2023-10-27T14:51:53.799Z,37.80
2023-10-27T14:54:22.049Z,37.50
2023-10-27T14:56:51.906Z,37.30
2023-10-27T14:59:22.592Z,36.92
2023-10-27T15:01:50.794Z,37.42
2023-10-27T15:04:22.045Z,37.65
2023-10-27T15:06:58.484Z,37.13
2023-10-27T15:09:35.186Z,36.97
2023-10-27T15:12:09.216Z,37.28
2023-10-27T15:14:39.083Z,37.03
2023-10-27T15:17:07.750Z,38.58
2023-10-27T15:19:39.228Z,36.90
2023-10-27T15:22:09.316Z,38.45
2023-10-27T15:24:37.438Z,38.25
2023-10-27T15:27:11.166Z,38.97
2023-10-27T15:29:39.366Z,37.00
2023-10-27T15:32:08.472Z,37.40
2023-10-27T15:34:40.419Z,37.78
2023-10-27T15:37:09.317Z,37.78
2023-10-27T15:39:38.389Z,36.90
2023-10-27T15:42:10.794Z,37.05
2023-10-27T15:44:42.345Z,37.78
2023-10-27T15:47:11.131Z,36.00
2023-10-27T15:49:39.552Z,35.75
2023-10-27T15:52:08.260Z,37.40
2023-10-27T15:54:36.518Z,36.95
2023-10-27T15:57:08.016Z,36.88
2023-10-27T15:59:37.864Z,38.55
2023-10-27T16:02:07.686Z,38.80
2023-10-27T16:04:36.247Z,38.33
2023-10-27T16:07:04.786Z,39.05
2023-10-27T16:09:40.381Z,36.28
2023-10-27T16:12:09.992Z,36.53
2023-10-27T16:14:40.065Z,36.38
2023-10-27T16:17:09.593Z,37.33
2023-10-27T16:19:38.613Z,37.00
2023-10-27T16:22:09.136Z,37.72
2023-10-27T16:24:40.397Z,38.53
2023-10-27T16:27:09.434Z,39.00
2023-10-27T16:29:39.392Z,38.97
2023-10-27T16:32:08.133Z,36.97
2023-10-27T16:34:36.471Z,37.83
2023-10-27T16:37:04.948Z,36.72
2023-10-27T16:39:36.620Z,35.67
2023-10-27T16:42:08.481Z,36.33
2023-10-27T16:44:41.178Z,36.53
2023-10-27T16:47:12.616Z,35.33
2023-10-27T16:49:46.424Z,35.25
2023-10-27T16:52:18.632Z,34.90
2023-10-27T16:54:51.605Z,35.10
2023-10-27T16:57:20.370Z,36.13
2023-10-27T17:00:27.831Z,36.22
2023-10-27T17:03:13.728Z,35.75
2023-10-27T17:09:32.811Z,36.17
2023-10-27T17:12:11.589Z,36.88
2023-10-27T17:15:12.742Z,36.67
2023-10-27T17:18:42.290Z,36.78
2023-10-27T17:21:28.174Z,36.92
2023-10-27T17:24:05.537Z,36.90
2023-10-27T17:26:43.956Z,36.80
2023-10-27T17:29:17.631Z,37.53
2023-10-27T17:32:00.259Z,36.25
2023-10-27T17:34:46.603Z,38.05
2023-10-27T17:37:21.749Z,37.75
2023-10-27T17:39:52.241Z,36.60
2023-10-27T17:42:23.841Z,37.60
2023-10-27T17:44:52.348Z,36.75
2023-10-27T17:47:23.033Z,36.60
2023-10-27T17:49:54.143Z,35.88
2023-10-27T17:52:23.642Z,35.70
2023-10-27T17:54:54.802Z,36.78
2023-10-27T17:57:23.173Z,36.67
2023-10-27T17:59:51.502Z,35.22
2023-10-27T18:02:21.152Z,35.95
2023-10-27T18:04:53.783Z,35.45
2023-10-27T18:07:25.678Z,35.08
2023-10-27T18:09:56.632Z,35.25
2023-10-27T18:12:27.580Z,35.78
2023-10-27T18:15:58.888Z,35.10
2023-10-27T18:18:33.082Z,35.58
2023-10-27T18:21:07.988Z,34.85
2023-10-27T18:23:36.909Z,35.10
2023-10-27T18:26:12.755Z,34.15
2023-10-27T18:28:41.298Z,35.03
2023-10-27T18:31:09.892Z,34.60
2023-10-27T18:33:39.546Z,35.47
2023-10-27T18:36:14.832Z,35.60
2023-10-27T18:38:43.548Z,34.72
2023-10-27T18:41:11.843Z,35.28
2023-10-27T18:43:41.371Z,34.70
2023-10-27T18:46:10.422Z,34.90
2023-10-27T18:48:38.782Z,37.00
2023-10-27T18:51:08.674Z,36.10
2023-10-27T18:53:48.936Z,36.75
2023-10-27T18:56:18.078Z,36.00
2023-10-27T18:58:47.770Z,36.28
2023-10-27T19:01:17.701Z,36.85
2023-10-27T19:03:48.547Z,37.33
2023-10-27T19:06:17.827Z,37.03
2023-10-27T19:08:47.778Z,37.15
2023-10-27T19:11:18.817Z,35.90
2023-10-27T19:13:48.310Z,38.03
2023-10-27T19:16:17.234Z,38.38
2023-10-27T19:18:48.150Z,37.83
2023-10-27T19:21:18.616Z,37.92
2023-10-27T19:23:52.155Z,38.83
2023-10-27T19:26:21.305Z,39.75
2023-10-27T19:28:51.283Z,40.70
2023-10-27T19:31:21.539Z,42.08
2023-10-27T19:33:52.782Z,41.55
2023-10-27T19:36:22.743Z,41.15
2023-10-27T19:38:53.205Z,39.75
2023-10-27T19:41:22.062Z,39.40
2023-10-27T19:43:51.661Z,38.88
2023-10-27T19:46:21.216Z,39.00
2023-10-27T19:48:49.848Z,38.28
2023-10-27T19:51:21.193Z,38.25
2023-10-27T19:53:49.912Z,37.95
2023-10-27T19:56:19.530Z,37.08
2023-10-27T19:58:47.922Z,37.25
2023-10-27T20:01:18.490Z,36.22
2023-10-27T20:03:49.147Z,37.35
2023-10-27T20:06:18.083Z,36.70
2023-10-27T20:08:46.526Z,36.03
2023-10-27T20:11:17.350Z,35.90
2023-10-27T20:13:49.080Z,36.65
2023-10-27T20:16:18.839Z,36.08
2023-10-27T20:18:48.719Z,36.40
2023-10-27T20:21:17.101Z,36.70
2023-10-27T20:23:47.235Z,36.40
2023-10-27T20:26:15.915Z,36.80
2023-10-27T20:28:47.729Z,37.28
2023-10-27T20:31:16.104Z,37.05
2023-10-27T20:33:44.373Z,36.92
2023-10-27T20:36:13.191Z,36.67
2023-10-27T20:38:41.386Z,37.13
2023-10-27T20:41:09.932Z,36.30
2023-10-27T20:43:38.850Z,36.25
2023-10-27T20:46:11.925Z,36.28
2023-10-27T20:48:41.003Z,36.97
2023-10-27T20:51:10.398Z,37.67
2023-10-27T20:53:38.717Z,36.80
2023-10-27T20:56:08.745Z,36.55
2023-10-27T20:58:37.151Z,36.90
2023-10-27T21:01:10.579Z,37.40
2023-10-27T21:03:39.945Z,38.20
2023-10-27T21:06:09.155Z,38.05
2023-10-27T21:08:38.202Z,37.80
2023-10-27T21:11:06.751Z,37.67
2023-10-27T21:13:35.002Z,37.67
2023-10-27T21:16:06.543Z,37.30
2023-10-27T21:18:36.198Z,38.05
2023-10-27T21:21:04.535Z,39.17
2023-10-27T21:23:32.937Z,38.63
2023-10-27T21:26:04.310Z,39.75
2023-10-27T21:28:32.946Z,39.08
2023-10-27T21:31:01.139Z,37.60
2023-10-27T21:33:29.488Z,39.75
2023-10-27T21:35:59.040Z,39.83
2023-10-27T21:38:27.281Z,38.85
2023-10-27T21:40:55.646Z,39.80
2023-10-27T21:43:24.082Z,38.85
2023-10-27T21:45:52.280Z,39.92
2023-10-27T21:48:21.505Z,39.78
2023-10-27T21:50:49.717Z,39.95
2023-10-27T21:53:19.448Z,39.75
2023-10-27T21:55:47.592Z,39.17
2023-10-27T21:58:18.889Z,39.67
2023-10-27T22:00:49.971Z,41.15
2023-10-27T22:03:19.506Z,42.58
2023-10-27T22:05:49.321Z,41.78
2023-10-27T22:08:19.032Z,41.42
2023-10-27T22:10:48.162Z,41.85
2023-10-27T22:13:16.738Z,40.90
2023-10-27T22:15:46.004Z,40.85
2023-10-27T22:18:16.093Z,41.53
2023-10-27T22:20:44.862Z,40.47
2023-10-27T22:23:13.009Z,41.58
2023-10-27T22:25:44.990Z,41.35
2023-10-27T22:28:16.751Z,40.72
2023-10-27T22:30:46.066Z,41.60
2023-10-27T22:33:14.709Z,41.63
2023-10-27T22:35:43.273Z,41.60
2023-10-27T22:38:12.311Z,42.75
2023-10-27T22:40:40.743Z,40.63
2023-10-27T22:43:10.817Z,41.03
2023-10-27T22:45:40.713Z,42.08
2023-10-27T22:48:09.608Z,40.92
2023-10-27T22:50:39.066Z,41.75
2023-10-27T22:53:08.943Z,41.05
2023-10-27T22:55:37.161Z,41.33
2023-10-27T22:58:05.924Z,41.65
2023-10-27T23:00:35.753Z,41.85
2023-10-27T23:03:05.062Z,42.55
2023-10-27T23:05:36.464Z,41.55
2023-10-27T23:08:07.090Z,41.45
2023-10-27T23:10:35.276Z,41.83
2023-10-27T23:13:06.548Z,42.53
2023-10-27T23:15:37.832Z,42.97
2023-10-27T23:18:06.520Z,42.35
2023-10-27T23:20:34.874Z,45.42
2023-10-27T23:23:03.429Z,42.75
2023-10-27T23:25:34.350Z,42.88
2023-10-27T23:28:02.715Z,43.72
2023-10-27T23:30:31.727Z,42.95
2023-10-27T23:33:03.301Z,41.85
2023-10-27T23:35:32.930Z,42.72
2023-10-27T23:38:01.213Z,43.13
2023-10-27T23:40:30.423Z,42.60
2023-10-27T23:42:58.712Z,42.83
2023-10-27T23:45:27.577Z,41.55
2023-10-27T23:47:55.999Z,42.17
2023-10-27T23:50:25.682Z,42.88
2023-10-27T23:52:53.938Z,42.33
2023-10-27T23:55:22.246Z,42.40
2023-10-27T23:57:50.386Z,43.00
